Time;durP1;ratioP1;P1;durP2;ratioP2;P2;SDS_P1;SDS_P2;PMS_P1;PMS_P2;Temp;Humidity;BMP_temperature;BMP_pressure;BME280_temperature;BME280_humidity;BME280_pressure;Samples;Min_cycle;Max_cycle;Signal;HPM_P1;HPM_P2
2022/07/29 00:01:28;;;;;;;4.70;1.10;;;;;;;17.31;100.00;101780.19;5106113;28;20060;-70
2022/07/29 00:03:53;;;;;;;1.63;1.00;;;;;;;17.27;100.00;101781.03;5111136;28;20027;-71
2022/07/29 00:06:20;;;;;;;1.80;1.00;;;;;;;17.22;100.00;101781.03;5099814;28;20069;-69
2022/07/29 00:08:46;;;;;;;4.30;1.33;;;;;;;17.19;100.00;101773.91;5095391;28;20504;-70
2022/07/29 00:11:11;;;;;;;3.63;1.00;;;;;;;17.19;100.00;101773.91;5098618;28;20023;-70
2022/07/29 00:13:36;;;;;;;2.00;0.93;;;;;;;17.10;100.00;101765.88;5101107;28;20468;-70
2022/07/29 00:16:02;;;;;;;3.88;1.17;;;;;;;17.13;100.00;101763.28;5093695;28;20107;-70
2022/07/29 00:18:27;;;;;;;2.55;0.95;;;;;;;17.06;100.00;101766.75;5096913;28;20040;-70
2022/07/29 00:20:53;;;;;;;1.40;1.00;;;;;;;17.07;100.00;101760.56;5101688;28;20028;-69
2022/07/29 00:23:18;;;;;;;4.43;1.25;;;;;;;16.97;100.00;101758.72;5098458;28;20027;-70
2022/07/29 00:25:43;;;;;;;4.10;1.20;;;;;;;16.94;100.00;101758.72;5103652;28;20084;-70
2022/07/29 00:28:09;;;;;;;3.47;1.15;;;;;;;16.97;100.00;101758.72;5100812;28;20084;-70
2022/07/29 00:30:34;;;;;;;3.80;1.30;;;;;;;16.97;100.00;101757.00;5100247;28;20036;-69
2022/07/29 00:32:59;;;;;;;3.40;1.40;;;;;;;16.90;100.00;101757.84;5092043;28;20540;-69
2022/07/29 00:35:43;;;;;;;2.10;1.33;;;;;;;16.91;100.00;101758.72;5111824;28;20383;-69
2022/07/29 00:38:09;;;;;;;;;;;;;;;16.83;100.00;101750.66;5104313;28;20058;-70
2022/07/29 00:40:35;;;;;;;3.15;1.17;;;;;;;16.85;100.00;101755.13;5107142;28;19916;-70
2022/07/29 00:43:01;;;;;;;2.83;1.30;;;;;;;16.79;100.00;101751.53;5102522;28;20024;-70
2022/07/29 00:45:27;;;;;;;4.07;1.20;;;;;;;16.80;100.00;101740.91;5102145;28;20027;-71
2022/07/29 00:47:52;;;;;;;4.32;1.30;;;;;;;16.85;100.00;101749.78;5105471;28;20036;-71
2022/07/29 00:50:17;;;;;;;3.63;1.38;;;;;;;16.84;100.00;101748.00;5112447;28;20024;-70
2022/07/29 00:52:43;;;;;;;2.90;1.17;;;;;;;16.73;100.00;101738.22;5115849;28;20027;-70
2022/07/29 00:55:12;;;;;;;5.25;1.55;;;;;;;16.77;100.00;101743.56;5106440;28;20026;-70
2022/07/29 00:57:39;;;;;;;3.78;1.30;;;;;;;16.77;100.00;101735.59;5110071;28;20032;-70
2022/07/29 01:00:07;;;;;;;6.10;1.25;;;;;;;16.75;100.00;101741.75;5097090;28;20414;-70
2022/07/29 01:02:32;;;;;;;5.70;1.40;;;;;;;16.78;100.00;101742.69;5109626;28;20047;-69
2022/07/29 01:04:58;;;;;;;5.38;1.20;;;;;;;16.71;100.00;101735.53;5106479;28;20054;-69
2022/07/29 01:07:25;;;;;;;2.78;1.25;;;;;;;16.66;100.00;101730.22;5108985;28;20035;-70
2022/07/29 01:09:53;;;;;;;2.63;1.48;;;;;;;16.71;100.00;101735.53;5099618;28;20047;-70
2022/07/29 01:12:28;;;;;;;7.75;1.40;;;;;;;16.68;100.00;101732.88;5101306;28;20024;-71
2022/07/29 01:14:55;;;;;;;13.57;1.60;;;;;;;16.69;100.00;101742.63;5078110;28;20103;-70
2022/07/29 01:17:26;;;;;;;7.80;1.50;;;;;;;16.68;100.00;101732.88;5107192;28;20034;-70
2022/07/29 01:20:07;;;;;;;2.15;1.42;;;;;;;16.61;100.00;101731.94;5097049;28;20035;-71
2022/07/29 01:22:58;;;;;;;2.13;1.35;;;;;;;16.66;100.00;101732.00;5106780;28;20028;-70
2022/07/29 01:25:48;;;;;;;5.88;1.40;;;;;;;16.62;100.00;101738.16;5112876;28;20547;-71
2022/07/29 01:28:31;;;;;;;2.20;1.30;;;;;;;16.61;100.00;101733.72;5085111;28;20103;-70
2022/07/29 01:31:00;;;;;;;5.72;1.55;;;;;;;16.57;100.00;101732.81;5112106;28;20027;-70
2022/07/29 01:36:16;;;;;;;5.47;1.90;;;;;;;16.57;100.00;101731.94;5114435;28;20433;-69
2022/07/29 01:38:44;;;;;;;4.28;1.40;;;;;;;16.56;100.00;101725.72;5114993;28;20459;-69
2022/07/29 01:41:14;;;;;;;1.88;1.60;;;;;;;16.51;100.00;101722.16;5108581;28;20440;-70
2022/07/29 01:44:03;;;;;;;7.07;1.70;;;;;;;16.53;100.00;101717.72;5105785;28;20428;-70
2022/07/29 01:46:37;;;;;;;5.40;1.52;;;;;;;16.46;100.00;101722.13;5096038;28;20036;-71
2022/07/29 01:49:18;;;;;;;6.63;1.58;;;;;;;16.46;100.00;101722.13;5097536;28;20028;-69
2022/07/29 01:51:51;;;;;;;8.27;1.55;;;;;;;16.51;100.00;101714.19;5095724;28;20031;-69
2022/07/29 01:54:42;;;;;;;4.55;1.75;;;;;;;16.46;100.00;101719.47;5108464;28;20063;-69
2022/07/29 01:57:10;;;;;;;2.38;1.40;;;;;;;16.46;100.00;101708.84;5095963;28;20027;-69
2022/07/29 01:59:37;;;;;;;2.63;1.20;;;;;;;16.34;100.00;101714.94;5097151;28;20380;-69
2022/07/29 02:02:04;;;;;;;4.95;1.42;;;;;;;16.37;100.00;101708.75;5097647;28;20024;-69
2022/07/29 02:04:32;;;;;;;3.90;1.50;;;;;;;16.32;100.00;101705.22;5102217;28;21033;-70
2022/07/29 02:07:02;;;;;;;5.60;1.95;;;;;;;16.32;100.00;101711.41;5110154;28;20401;-70
2022/07/29 02:09:29;;;;;;;2.20;1.20;;;;;;;16.31;100.00;101700.78;5087356;28;20084;-70
2022/07/29 02:11:57;;;;;;;3.08;1.33;;;;;;;16.35;100.00;101699.91;5111856;28;20072;-71
2022/07/29 02:14:23;;;;;;;9.82;1.40;;;;;;;16.28;100.00;101698.09;5114479;28;20425;-70
2022/07/29 02:16:53;;;;;;;4.45;1.48;;;;;;;16.23;100.00;101700.72;5110941;28;20028;-69
2022/07/29 02:19:23;;;;;;;5.45;1.60;;;;;;;16.27;100.00;101691.88;5110753;28;20037;-70
2022/07/29 02:21:51;;;;;;;3.05;1.40;;;;;;;16.24;100.00;101696.31;5102509;28;20480;-70
2022/07/29 02:24:18;;;;;;;4.10;1.25;;;;;;;16.23;100.00;101699.84;5105875;28;20047;-71
2022/07/29 02:26:44;;;;;;;5.32;1.48;;;;;;;16.21;100.00;101698.94;5111729;28;20098;-70
2022/07/29 02:29:12;;;;;;;3.53;1.50;;;;;;;16.17;100.00;101696.25;5111571;28;20415;-71
2022/07/29 02:31:39;;;;;;;5.32;1.38;;;;;;;16.16;100.00;101693.59;5103807;28;20352;-70
2022/07/29 02:34:08;;;;;;;4.15;1.35;;;;;;;16.14;100.00;101696.25;5107287;28;20097;-70
2022/07/29 02:36:34;;;;;;;5.88;2.10;;;;;;;16.13;100.00;101691.81;5096569;28;20033;-71
2022/07/29 02:39:01;;;;;;;4.25;1.40;;;;;;;16.15;100.00;101692.69;5112427;28;20035;-69
2022/07/29 02:41:41;;;;;;;6.30;1.70;;;;;;;16.25;100.00;101698.06;5097019;28;20032;-70
2022/07/29 02:44:15;;;;;;;4.30;1.77;;;;;;;16.04;100.00;101699.69;5105256;28;20526;-70
2022/07/29 02:47:03;;;;;;;6.75;1.45;;;;;;;16.04;100.00;101705.00;5111718;28;20034;-70
2022/07/29 02:49:37;;;;;;;4.97;1.60;;;;;;;16.07;100.00;101699.72;5088669;28;20055;-70
2022/07/29 02:52:15;;;;;;;4.30;1.70;;;;;;;16.08;100.00;101701.50;5113065;28;20367;-69
2022/07/29 02:54:49;;;;;;;6.47;1.50;;;;;;;16.07;100.00;101699.72;5108088;28;20020;-70
2022/07/29 02:57:36;;;;;;;3.83;1.30;;;;;;;16.09;100.00;101700.63;5102434;28;20475;-70
2022/07/29 03:00:06;;;;;;;3.47;1.52;;;;;;;16.04;100.00;101698.81;5111515;28;20081;-71
2022/07/29 03:02:35;;;;;;;2.70;1.88;;;;;;;16.05;100.00;101700.56;5094673;28;20032;-70
2022/07/29 03:05:02;;;;;;;3.58;1.80;;;;;;;16.01;100.00;101691.72;5111009;28;20466;-70
2022/07/29 03:07:29;;;;;;;4.78;1.58;;;;;;;16.00;100.00;101687.28;5110128;28;20096;-71
2022/07/29 03:09:55;;;;;;;2.95;1.55;;;;;;;15.97;100.00;101692.56;5111054;28;20039;-70
2022/07/29 03:12:21;;;;;;;4.65;1.58;;;;;;;15.98;100.00;101686.41;5103689;28;20378;-69
2022/07/29 03:14:48;;;;;;;3.67;1.40;;;;;;;15.93;100.00;101688.13;5107032;28;20024;-69
2022/07/29 03:17:14;;;;;;;3.33;1.60;;;;;;;15.88;100.00;101674.78;5110697;28;20016;-70
2022/07/29 03:19:40;;;;;;;2.25;1.70;;;;;;;15.82;100.00;101683.59;5108980;28;20477;-69
2022/07/29 03:22:06;;;;;;;2.83;1.95;;;;;;;15.75;100.00;101681.75;5099024;28;20102;-69
2022/07/29 03:24:34;;;;;;;5.40;1.58;;;;;;;15.73;100.00;101679.94;5105885;28;20016;-70
2022/07/29 03:27:00;;;;;;;4.25;1.80;;;;;;;15.78;100.00;101675.56;5087651;28;20054;-71
2022/07/29 03:29:26;;;;;;;4.28;2.10;;;;;;;15.74;100.00;101677.31;5113504;28;20439;-71
2022/07/29 03:31:52;;;;;;;5.03;2.10;;;;;;;15.78;100.00;101673.78;5089352;28;20030;-71
2022/07/29 03:34:17;;;;;;;4.00;1.98;;;;;;;15.78;100.00;101676.44;5097184;28;20035;-70
2022/07/29 03:36:42;;;;;;;4.38;2.20;;;;;;;15.70;100.00;101678.16;5101751;28;20032;-70
2022/07/29 03:39:10;;;;;;;4.88;2.53;;;;;;;15.71;100.00;101682.59;5112723;28;20379;-71
2022/07/29 03:41:38;;;;;;;8.07;2.00;;;;;;;15.68;100.00;101682.53;5102801;28;20107;-71
2022/07/29 03:44:06;;;;;;;4.20;2.17;;;;;;;15.76;100.00;101675.56;5108516;28;20027;-71
2022/07/29 03:46:35;;;;;;;6.07;2.30;;;;;;;15.73;100.00;101672.88;5094215;28;20020;-70
2022/07/29 03:49:04;;;;;;;3.00;2.03;;;;;;;15.79;100.00;101675.59;5112383;28;20042;-70
2022/07/29 03:51:30;;;;;;;4.28;2.00;;;;;;;15.72;100.00;101673.75;5089690;28;20387;-71
2022/07/29 03:53:56;;;;;;;4.07;2.10;;;;;;;15.66;100.00;101669.25;5103684;28;20032;-69
2022/07/29 03:56:23;;;;;;;3.45;2.03;;;;;;;15.64;100.00;101672.78;5105813;28;20027;-69
2022/07/29 03:58:53;;;;;;;6.32;2.28;;;;;;;15.54;100.00;101682.44;5094278;28;20039;-70
2022/07/29 04:01:20;;;;;;;7.95;2.25;;;;;;;15.55;100.00;101678.03;5096701;28;20076;-71
2022/07/29 04:03:46;;;;;;;8.95;2.53;;;;;;;15.56;100.00;101679.78;5095326;28;20024;-69
2022/07/29 04:06:11;;;;;;;3.83;2.28;;;;;;;15.57;100.00;101673.59;5107422;28;20020;-69
2022/07/29 04:08:37;;;;;;;5.20;2.05;;;;;;;15.57;100.00;101676.25;5100500;28;20015;-69
2022/07/29 04:11:03;;;;;;;4.68;2.35;;;;;;;15.67;100.00;101673.72;5080491;28;20387;-70
2022/07/29 04:13:29;;;;;;;6.22;2.20;;;;;;;15.64;100.00;101672.78;5099397;28;20028;-70
2022/07/29 04:15:55;;;;;;;4.57;2.00;;;;;;;15.63;100.00;101676.34;5105073;28;20451;-70
2022/07/29 04:18:20;;;;;;;4.70;2.10;;;;;;;15.65;100.00;101679.88;5105280;28;20118;-71
2022/07/29 04:20:45;;;;;;;5.53;2.53;;;;;;;15.64;100.00;101676.34;5113404;28;20016;-70
2022/07/29 04:23:11;;;;;;;5.93;1.98;;;;;;;15.64;100.00;101679.00;5088998;28;20091;-70
2022/07/29 04:25:38;;;;;;;4.30;2.20;;;;;;;15.69;100.00;101676.38;5099736;28;20019;-70
2022/07/29 04:28:03;;;;;;;5.68;2.03;;;;;;;15.72;100.00;101680.81;5103715;28;20057;-71
2022/07/29 04:30:30;;;;;;;2.67;1.98;;;;;;;15.70;100.00;101675.50;5116136;28;20016;-70
2022/07/29 04:32:56;;;;;;;3.85;2.45;;;;;;;15.66;100.00;101674.56;5115397;28;20023;-70
2022/07/29 04:35:21;;;;;;;3.95;2.17;;;;;;;15.67;100.00;101672.81;5105144;28;20028;-70
2022/07/29 04:37:47;;;;;;;6.10;2.30;;;;;;;15.67;100.00;101672.81;5100617;28;20027;-69
2022/07/29 04:40:12;;;;;;;2.97;2.55;;;;;;;15.65;100.00;101677.22;5079804;28;20024;-71
2022/07/29 04:42:39;;;;;;;4.30;1.92;;;;;;;15.60;100.00;101670.97;5092166;28;20031;-71
2022/07/29 04:45:04;;;;;;;3.58;2.20;;;;;;;15.64;100.00;101678.09;5097060;28;20405;-71
2022/07/29 04:47:30;;;;;;;4.45;2.13;;;;;;;15.59;100.00;101674.53;5107746;28;20067;-71
2022/07/29 04:49:56;;;;;;;3.75;2.10;;;;;;;15.55;100.00;101680.69;5107015;28;20491;-71
2022/07/29 04:52:21;;;;;;;4.15;2.58;;;;;;;15.55;100.00;101673.59;5109638;28;20085;-71
2022/07/29 04:54:47;;;;;;;4.28;2.42;;;;;;;15.51;100.00;101672.66;5107077;28;20463;-70
2022/07/29 04:57:12;;;;;;;3.88;2.10;;;;;;;15.51;100.00;101671.78;5083484;28;20417;-70
2022/07/29 04:59:38;;;;;;;6.97;2.30;;;;;;;15.54;100.00;101669.16;5096721;28;20040;-70
2022/07/29 05:02:03;;;;;;;6.63;2.67;;;;;;;15.45;100.00;101674.38;5110577;28;20036;-71
2022/07/29 05:04:28;;;;;;;5.25;2.63;;;;;;;15.45;100.00;101669.97;5098383;28;20055;-69
2022/07/29 05:06:54;;;;;;;2.88;1.88;;;;;;;15.49;100.00;101677.09;5108132;28;20093;-71
2022/07/29 05:09:19;;;;;;;5.38;1.90;;;;;;;15.48;100.00;101677.94;5112007;28;20112;-69
2022/07/29 05:11:44;;;;;;;5.95;2.10;;;;;;;15.57;100.00;101673.59;5114349;28;20050;-70
2022/07/29 05:14:10;;;;;;;6.20;2.10;;;;;;;15.59;100.00;101679.84;5101641;28;20039;-70
2022/07/29 05:16:35;;;;;;;6.63;2.00;;;;;;;15.58;100.00;101681.56;5106282;28;20348;-70
2022/07/29 05:19:01;;;;;;;3.95;1.90;;;;;;;15.60;100.00;101679.84;5101215;28;20107;-70
2022/07/29 05:21:26;;;;;;;4.88;2.22;;;;;;;15.65;100.00;101682.53;5114704;28;20020;-71
2022/07/29 05:23:51;;;;;;;3.95;2.10;;;;;;;15.66;100.00;101679.88;5106244;28;20103;-70
2022/07/29 05:26:17;;;;;;;3.17;1.83;;;;;;;15.69;100.00;101686.97;5097726;28;20363;-70
2022/07/29 05:28:42;;;;;;;5.10;2.22;;;;;;;15.71;100.00;101685.25;5099641;28;20035;-69
2022/07/29 05:31:08;;;;;;;3.42;1.85;;;;;;;15.81;100.00;101681.81;5102402;28;20527;-69
2022/07/29 05:33:33;;;;;;;2.13;1.92;;;;;;;15.89;100.00;101687.19;5099314;28;20027;-69
2022/07/29 05:36:00;;;;;;;8.75;2.22;;;;;;;15.95;100.00;101695.22;5078106;28;20543;-70
2022/07/29 05:38:25;;;;;;;6.40;2.10;;;;;;;15.99;100.00;101694.38;5098606;28;20387;-70
2022/07/29 05:40:51;;;;;;;5.35;1.80;;;;;;;16.07;100.00;101699.72;5104907;28;20019;-71
2022/07/29 05:43:16;;;;;;;7.32;2.88;;;;;;;16.14;100.00;101700.66;5100759;28;20028;-70
2022/07/29 05:45:41;;;;;;;2.10;1.90;;;;;;;16.23;100.00;101699.84;5098878;28;20024;-71
2022/07/29 05:48:06;;;;;;;6.05;1.90;;;;;;;16.35;100.00;101706.09;5110838;28;20019;-71
2022/07/29 05:50:32;;;;;;;4.55;2.53;;;;;;;16.34;100.00;101698.13;5098916;28;20023;-70
2022/07/29 05:52:57;;;;;;;7.70;2.88;;;;;;;16.40;100.00;101699.94;5112250;28;20079;-70
2022/07/29 05:55:23;;;;;;;3.05;2.30;;;;;;;16.48;100.00;101696.47;5111312;28;20027;-71
2022/07/29 05:57:48;;;;;;;5.00;2.60;;;;;;;16.57;100.00;101700.91;5110305;28;20020;-70
2022/07/29 06:00:14;;;;;;;5.03;2.47;;;;;;;16.65;100.00;101698.31;5095852;28;20410;-70
2022/07/29 06:02:39;;;;;;;3.90;2.50;;;;;;;16.67;100.00;101696.53;5102474;28;20111;-69
2022/07/29 06:05:05;;;;;;;4.13;2.67;;;;;;;16.77;100.00;101686.88;5104851;28;20117;-70
2022/07/29 06:07:32;;;;;;;3.97;2.20;;;;;;;16.80;100.00;101689.53;5098815;28;20031;-70
2022/07/29 06:09:57;;;;;;;5.60;2.42;;;;;;;16.86;100.00;101693.09;5093621;28;20028;-70
2022/07/29 06:12:23;;;;;;;5.95;2.10;;;;;;;16.93;100.00;101702.03;5098667;28;20034;-68
2022/07/29 06:14:48;;;;;;;4.30;2.13;;;;;;;16.97;100.00;101706.47;5105067;28;20016;-68
2022/07/29 06:17:16;;;;;;;2.63;1.77;;;;;;;17.07;100.00;101696.75;5115340;28;20110;-70
2022/07/29 06:19:41;;;;;;;4.97;1.83;;;;;;;17.22;100.00;101698.56;5108332;28;20037;-71
2022/07/29 06:22:06;;;;;;;3.70;1.55;;;;;;;17.36;100.00;101696.84;5110225;28;20106;-71
2022/07/29 06:24:32;;;;;;;3.05;1.70;;;;;;;17.54;100.00;101703.09;5114183;28;20019;-71
2022/07/29 06:26:57;;;;;;;5.80;1.70;;;;;;;17.64;100.00;101694.19;5104217;28;20360;-71
2022/07/29 06:29:23;;;;;;;3.42;1.80;;;;;;;17.64;100.00;101704.84;5105681;28;20026;-71
2022/07/29 06:31:48;;;;;;;4.00;1.58;;;;;;;17.62;100.00;101703.97;5106696;28;20177;-71
2022/07/29 06:34:13;;;;;;;9.90;1.85;;;;;;;17.60;100.00;101703.06;5100921;28;20055;-70
2022/07/29 06:36:39;;;;;;;3.65;1.63;;;;;;;17.70;100.00;101704.88;5105744;28;20028;-71
2022/07/29 06:39:06;;;;;;;3.90;1.85;;;;;;;17.75;100.00;101704.84;5106745;28;20446;-70
2022/07/29 06:41:32;;;;;;;4.72;1.60;;;;;;;17.79;100.00;101708.41;5098957;28;20383;-72
2022/07/29 06:43:58;;;;;;;6.90;1.60;;;;;;;17.80;100.00;101715.53;5099278;28;20456;-71
2022/07/29 06:46:24;;;;;;;7.35;1.88;;;;;;;17.77;100.00;101713.75;5103512;28;20081;-72
2022/07/29 06:48:50;;;;;;;5.70;2.55;;;;;;;17.70;100.00;101719.94;5114833;28;20035;-72
2022/07/29 06:51:16;;;;;;;10.63;1.80;;;;;;;17.74;100.00;101721.72;5086099;28;20027;-71
2022/07/29 06:53:42;;;;;;;5.70;1.70;;;;;;;17.80;100.00;101716.41;5114844;28;20125;-70
2022/07/29 06:56:10;;;;;;;4.47;1.88;;;;;;;17.91;100.00;101718.19;5089722;28;20073;-72
2022/07/29 06:58:35;;;;;;;2.92;1.67;;;;;;;17.93;100.00;101727.09;5095717;28;20048;-72
2022/07/29 07:01:03;;;;;;;3.22;2.08;;;;;;;18.02;100.00;101727.09;5103091;28;20023;-71
2022/07/29 07:03:28;;;;;;;2.90;1.73;;;;;;;18.06;100.00;101725.31;5081207;28;20428;-71
2022/07/29 07:05:54;;;;;;;6.88;2.10;;;;;;;18.11;100.00;101729.75;5105377;28;20068;-74
2022/07/29 07:08:20;;;;;;;2.58;1.52;;;;;;;18.19;100.00;101730.63;5111610;28;20383;-72
2022/07/29 07:10:46;;;;;;;4.00;1.77;;;;;;;18.19;100.00;101737.72;5106208;28;20027;-70
2022/07/29 07:13:12;;;;;;;10.13;2.42;;;;;;;18.23;100.00;101730.63;5108313;28;20169;-71
2022/07/29 07:15:37;;;;;;;10.10;1.98;;;;;;;18.28;100.00;101728.84;5107960;28;20515;-70
2022/07/29 07:18:03;;;;;;;11.50;2.10;;;;;;;18.35;100.00;101731.50;5075753;28;20016;-71
2022/07/29 07:20:29;;;;;;;6.43;1.85;;;;;;;18.36;100.00;101729.72;5094357;28;20024;-71
2022/07/29 07:22:54;;;;;;;6.50;1.50;;;;;;;18.40;100.00;101734.16;5103452;28;20073;-72
2022/07/29 07:25:20;;;;;;;5.70;1.70;;;;;;;18.36;100.00;101738.59;5085465;28;20031;-71
2022/07/29 07:27:45;;;;;;;4.20;2.00;;;;;;;18.38;100.00;101741.28;5102285;28;20024;-72
2022/07/29 07:30:12;;;;;;;4.28;1.90;;;;;;;18.38;100.00;101735.97;5101362;28;20077;-72
2022/07/29 07:32:37;;;;;;;1.98;1.48;;;;;;;18.39;100.00;101742.16;5102171;28;20054;-72
2022/07/29 07:35:04;;;;;;;8.63;1.75;;;;;;;18.32;100.00;101744.81;5096789;28;20024;-72
2022/07/29 07:37:30;;;;;;;10.95;2.03;;;;;;;18.24;100.00;101743.06;5100805;28;20423;-72
2022/07/29 07:39:55;;;;;;;2.90;1.73;;;;;;;18.19;100.00;101741.28;5083860;28;20020;-72
2022/07/29 07:42:21;;;;;;;4.22;1.95;;;;;;;18.17;100.00;101740.41;5105403;28;20070;-72
2022/07/29 07:44:48;;;;;;;4.75;1.80;;;;;;;18.20;100.00;101732.41;5103537;28;20031;-71
2022/07/29 07:47:13;;;;;;;2.22;2.03;;;;;;;18.22;100.00;101736.84;5084402;28;20019;-71
2022/07/29 07:49:39;;;;;;;5.40;1.95;;;;;;;18.26;100.00;101731.53;5103248;28;20028;-70
2022/07/29 07:52:04;;;;;;;3.70;2.13;;;;;;;18.30;100.00;101743.03;5103478;28;20479;-72
2022/07/29 07:54:30;;;;;;;8.27;2.08;;;;;;;18.35;100.00;101744.84;5103691;28;20107;-72
2022/07/29 07:56:56;;;;;;;5.88;2.10;;;;;;;18.45;100.00;101743.03;5084923;28;20107;-73
2022/07/29 07:59:21;;;;;;;4.20;2.00;;;;;;;18.46;100.00;101739.50;5103117;28;20138;-72
2022/07/29 08:01:46;;;;;;;4.20;2.03;;;;;;;18.51;100.00;101748.34;5100672;28;20081;-71
2022/07/29 08:04:12;;;;;;;2.78;2.08;;;;;;;18.51;100.00;101740.34;5101095;28;20020;-72
2022/07/29 08:06:37;;;;;;;6.18;1.73;;;;;;;18.62;100.00;101737.66;5104374;28;20466;-71
2022/07/29 08:09:04;;;;;;;3.88;2.47;;;;;;;18.73;100.00;101737.63;5099712;28;20382;-71
2022/07/29 08:11:30;;;;;;;8.90;2.30;;;;;;;18.85;100.00;101740.25;5085739;28;20058;-71
2022/07/29 08:13:56;;;;;;;3.60;2.13;;;;;;;18.99;100.00;101740.25;5102387;28;20023;-71
2022/07/29 08:16:21;;;;;;;3.53;1.85;;;;;;;19.12;100.00;101735.75;5084219;28;20027;-72
2022/07/29 08:18:47;;;;;;;7.32;2.60;;;;;;;19.19;100.00;101733.94;5081721;28;20020;-71
2022/07/29 08:21:14;;;;;;;4.72;2.30;;;;;;;19.19;100.00;101732.16;5081444;28;20032;-71
2022/07/29 08:23:45;;;;;;;3.05;2.30;;;;;;;19.23;100.00;101742.81;5102644;28;20042;-72
2022/07/29 08:26:11;;;;;;;8.40;2.22;;;;;;;19.30;100.00;101736.53;5100514;28;20024;-72
2022/07/29 08:28:38;;;;;;;6.95;2.20;;;;;;;19.39;100.00;101736.50;5103527;28;20491;-71
2022/07/29 08:31:03;;;;;;;5.38;2.40;;;;;;;19.51;100.00;101731.06;5100534;28;20028;-71
2022/07/29 08:33:29;;;;;;;4.97;2.42;;;;;;;19.56;100.00;101736.41;5082558;28;20516;-71
2022/07/29 08:35:55;;;;;;;4.78;2.33;;;;;;;19.63;100.00;101731.88;5100786;28;20460;-71
2022/07/29 08:38:20;;;;;;;6.88;2.45;;;;;;;19.64;100.00;101737.25;5105202;28;20410;-71
2022/07/29 08:40:46;;;;;;;7.55;2.72;;;;;;;19.69;100.00;101732.72;5107609;28;20015;-71
2022/07/29 08:43:12;;;;;;;3.47;2.13;;;;;;;19.78;100.00;101738.91;5100264;28;20155;-71
2022/07/29 08:45:45;;;;;;;4.43;2.40;;;;;;;19.83;100.00;101746.03;5097606;28;20115;-71
2022/07/29 08:48:12;;;;;;;8.25;2.60;;;;;;;19.85;100.00;101743.34;5102839;28;20122;-71
2022/07/29 08:50:39;;;;;;;6.15;2.53;;;;;;;19.73;100.00;101744.28;5105199;28;20060;-72
2022/07/29 08:53:07;;;;;;;5.38;2.20;;;;;;;19.82;100.00;101748.72;5107586;28;20047;-71
2022/07/29 08:55:33;;;;;;;6.95;2.17;;;;;;;19.87;100.00;101758.47;5098037;28;20169;-75
2022/07/29 08:57:59;;;;;;;7.60;2.47;;;;;;;19.87;100.00;101753.13;5097356;28;20047;-66
2022/07/29 09:00:25;;;;;;;7.50;2.38;;;;;;;19.95;100.00;101747.69;5080391;28;20480;-67
2022/07/29 09:02:57;;;;;;;4.82;2.28;;;;;;;20.06;100.00;101747.63;5099838;28;20027;-66
2022/07/29 09:05:24;;;;;;;6.53;2.17;;;;;;;20.10;100.00;101743.13;5101802;28;20028;-71
2022/07/29 09:07:50;;;;;;;3.88;1.88;;;;;;;20.24;100.00;101745.69;5098141;28;20024;-71
2022/07/29 09:10:15;;;;;;;4.80;2.28;;;;;;;20.35;100.00;101749.16;5103592;28;20061;-70
2022/07/29 09:12:41;;;;;;;9.82;2.45;;;;;;;20.41;100.00;101742.88;5101887;28;20028;-70
2022/07/29 09:15:08;;;;;;;4.95;2.30;;;;;;;20.45;100.00;101739.25;5103540;28;20479;-71
2022/07/29 09:17:48;;;;;;;3.75;2.10;;;;;;;20.35;100.00;101741.16;5102964;28;20032;-71
2022/07/29 09:20:19;;;;;;;5.32;2.50;;;;;;;20.41;100.00;101735.72;5102336;28;20106;-72
2022/07/29 09:22:49;;;;;;;5.60;2.83;;;;;;;20.37;100.00;101737.56;5112196;27;20030;-71
2022/07/29 09:25:31;;;;;;;6.68;3.40;;;;;;;20.34;100.00;101739.34;5104312;28;20020;-70
2022/07/29 09:28:05;;;;;;;5.78;2.85;;;;;;;20.33;100.00;101741.16;5104212;28;20020;-71
2022/07/29 09:30:31;;;;;;;6.35;2.67;;;;;;;20.29;100.00;101738.50;5098972;28;20036;-71
2022/07/29 09:32:58;;;;;;;6.60;2.67;;;;;;;20.37;100.00;101742.91;5105740;28;20072;-73
2022/07/29 09:35:24;;;;;;;8.20;2.83;;;;;;;20.61;100.00;101740.84;5088610;28;20120;-73
2022/07/29 09:37:50;;;;;;;4.65;2.70;;;;;;;20.99;100.00;101736.00;5103410;28;20111;-73
2022/07/29 09:40:20;;;;;;;5.57;3.17;;;;;;;21.08;100.00;101741.25;5106628;28;20027;-72
2022/07/29 09:42:46;;;;;;;7.43;2.95;;;;;;;21.26;100.00;101739.22;5086596;28;20026;-73
2022/07/29 09:45:12;;;;;;;8.02;3.40;;;;;;;21.50;100.00;101733.53;5099266;28;20099;-71
2022/07/29 09:47:48;;;;;;;5.85;3.13;;;;;;;21.71;100.00;101737.69;5112162;28;20038;-71
2022/07/29 09:50:14;;;;;;;6.63;3.85;;;;;;;21.78;100.00;101729.56;5079326;28;20452;-72
2022/07/29 09:52:50;;;;;;;9.45;2.83;;;;;;;21.98;100.00;101726.56;5106575;28;20055;-73
2022/07/29 09:55:17;;;;;;;9.18;3.92;;;;;;;22.18;100.00;101729.78;5090910;28;20114;-73
2022/07/29 09:57:43;;;;;;;7.32;2.40;;;;;;;22.28;100.00;101732.28;5098783;28;20498;-72
2022/07/29 10:00:19;;;;;;;6.05;3.30;;;;;;;22.29;100.00;101734.94;5115018;28;20102;-73
2022/07/29 10:02:46;;;;;;;6.93;3.05;;;;;;;22.60;100.00;101744.22;5099620;28;20041;-73
2022/07/29 10:05:24;;;;;;;7.18;3.08;;;;;;;22.76;100.00;101734.09;5108734;28;20027;-72
2022/07/29 10:07:53;;;;;;;8.15;2.75;;;;;;;23.00;100.00;101736.25;5109531;28;20103;-73
2022/07/29 10:10:33;;;;;;;5.45;2.90;;;;;;;22.90;100.00;101732.03;5095782;28;20035;-73
2022/07/29 10:13:04;;;;;;;4.63;2.38;;;;;;;23.05;100.00;101736.19;5100508;28;20028;-73
2022/07/29 10:15:32;;;;;;;9.85;2.83;;;;;;;23.24;99.89;101740.25;5095694;28;20031;-72
2022/07/29 10:17:59;;;;;;;6.45;3.03;;;;;;;23.27;100.00;101733.06;5088347;28;20042;-73
2022/07/29 10:20:26;;;;;;;11.30;3.67;;;;;;;23.35;95.02;101728.41;5105640;28;20375;-72
2022/07/29 10:22:52;;;;;;;9.38;2.45;;;;;;;23.57;98.68;101724.25;5088471;28;20024;-72
2022/07/29 10:25:19;;;;;;;6.05;3.00;;;;;;;23.78;100.00;101727.38;5098210;28;20464;-72
2022/07/29 10:27:46;;;;;;;6.43;2.70;;;;;;;24.00;97.12;101726.88;5080113;28;20049;-72
2022/07/29 10:30:13;;;;;;;4.93;2.95;;;;;;;24.14;92.64;101732.75;5091191;28;20077;-72
2022/07/29 10:33:16;;;;;;;4.53;2.80;;;;;;;24.23;98.69;101734.34;5102291;28;20442;-72
2022/07/29 10:35:44;;;;;;;10.10;2.17;;;;;;;24.41;88.92;101728.44;5106036;28;20489;-72
2022/07/29 10:38:41;;;;;;;6.93;2.10;;;;;;;24.32;81.98;101719.75;5097839;28;20045;-72
2022/07/29 10:43:51;;;;;;;6.40;1.67;;;;;;;24.67;79.78;101723.31;5096164;28;20031;-71
2022/07/29 10:46:18;;;;;;;8.45;2.90;;;;;;;24.85;79.74;101722.78;5115179;28;20355;-70
2022/07/29 10:49:21;;;;;;;6.72;2.35;;;;;;;25.00;78.75;101725.94;5106453;28;20047;-72
2022/07/29 10:51:50;;;;;;;;;;;;;;;25.06;78.05;101721.25;5088847;28;20016;-72
2022/07/29 10:54:16;;;;;;;5.57;2.00;;;;;;;25.24;75.64;101717.13;5104474;28;19968;-70
2022/07/29 10:56:41;;;;;;;5.07;1.70;;;;;;;25.16;77.33;101721.84;5100418;28;20437;-71
2022/07/29 10:59:24;;;;;;;10.32;2.30;;;;;;;25.40;77.21;101713.97;5101766;28;20101;-70
2022/07/29 11:01:50;;;;;;;7.25;2.78;;;;;;;25.22;72.99;101710.03;5105359;28;20349;-70
2022/07/29 11:04:36;;;;;;;5.63;1.88;;;;;;;25.30;73.32;101707.06;5112625;28;20016;-71
2022/07/29 11:07:04;;;;;;;9.30;2.17;;;;;;;25.69;73.15;101717.53;5104370;28;20364;-71
2022/07/29 11:09:30;;;;;;;6.88;1.98;;;;;;;25.77;73.76;101712.75;5102781;28;20035;-71
2022/07/29 11:11:59;;;;;;;5.88;2.08;;;;;;;25.76;69.94;101711.03;5108865;28;20394;-71
2022/07/29 11:14:57;;;;;;;6.68;2.20;;;;;;;25.74;71.39;101704.78;5098957;28;20031;-70
2022/07/29 11:17:23;;;;;;;5.50;1.80;;;;;;;25.87;68.51;101698.06;5105267;28;20506;-70
2022/07/29 11:19:48;;;;;;;4.95;2.03;;;;;;;26.25;69.04;101709.34;5113613;28;20023;-72
2022/07/29 11:22:33;;;;;;;7.70;2.40;;;;;;;26.37;64.19;101707.13;5102402;28;20432;-71
2022/07/29 11:25:13;;;;;;;5.13;1.67;;;;;;;26.49;60.62;101711.22;5076099;28;20020;-72
2022/07/29 11:27:39;;;;;;;9.75;1.75;;;;;;;26.56;65.56;101707.34;5096852;28;20039;-71
2022/07/29 11:30:05;;;;;;;4.55;1.85;;;;;;;26.92;63.80;101710.50;5110732;28;20023;-71